Time;durP1;ratioP1;P1;durP2;ratioP2;P2;SDS_P1;SDS_P2;PMS_P1;PMS_P2;Temp;Humidity;BMP_temperature;BMP_pressure;BME280_temperature;BME280_humidity;BME280_pressure;Samples;Min_cycle;Max_cycle;Signal;HPM_P1;HPM_P2
2021/06/03 00:00:41;;;;;;;4.72;2.67;;;12.80;99.90;;;;;;5030924;28;20171;-71
2021/06/03 00:03:07;;;;;;;3.00;2.42;;;12.80;99.90;;;;;;5031213;28;20510;-71
2021/06/03 00:05:46;;;;;;;5.22;3.00;;;12.80;99.90;;;;;;5029544;28;20151;-71
2021/06/03 00:08:12;;;;;;;4.38;2.88;;;12.70;99.90;;;;;;5031759;28;20642;-71
2021/06/03 00:10:44;;;;;;;4.07;2.75;;;12.80;99.90;;;;;;5046029;28;20504;-71
2021/06/03 00:13:09;;;;;;;4.72;3.05;;;12.80;99.90;;;;;;5051304;28;20074;-71
2021/06/03 00:15:35;;;;;;;3.33;2.75;;;12.80;99.90;;;;;;5040614;28;20097;-71
2021/06/03 00:18:03;;;;;;;4.78;2.97;;;12.70;99.90;;;;;;5012817;28;20739;-72
2021/06/03 00:20:32;;;;;;;5.68;2.92;;;12.70;99.90;;;;;;5028871;28;20074;-71
2021/06/03 00:22:57;;;;;;;3.25;2.95;;;12.80;99.90;;;;;;5029239;28;20579;-72
2021/06/03 00:25:23;;;;;;;3.03;2.47;;;12.70;99.90;;;;;;5028941;28;20881;-71
2021/06/03 00:27:50;;;;;;;2.85;2.53;;;12.80;99.90;;;;;;5030916;28;20092;-71
2021/06/03 00:30:16;;;;;;;5.95;3.35;;;12.70;99.90;;;;;;5040301;28;20089;-72
2021/06/03 00:32:41;;;;;;;4.32;2.53;;;12.70;99.90;;;;;;5036289;28;20097;-71
2021/06/03 00:35:08;;;;;;;3.47;2.60;;;12.80;99.90;;;;;;5030903;28;20461;-71
2021/06/03 00:37:34;;;;;;;4.13;3.17;;;12.70;99.90;;;;;;5028769;28;20094;-71
2021/06/03 00:39:59;;;;;;;2.85;2.63;;;12.70;99.90;;;;;;5032878;28;20105;-71
2021/06/03 00:42:25;;;;;;;3.70;2.75;;;12.70;99.90;;;;;;5030591;28;20158;-71
2021/06/03 00:44:52;;;;;;;3.60;2.75;;;12.60;99.90;;;;;;5031509;28;20074;-71
2021/06/03 00:47:17;;;;;;;4.07;2.70;;;12.60;99.90;;;;;;5029332;28;20192;-72
2021/06/03 00:49:43;;;;;;;4.35;2.50;;;12.50;99.90;;;;;;5033011;28;20181;-71
2021/06/03 00:52:09;;;;;;;3.30;2.78;;;12.50;99.90;;;;;;5034750;28;20235;-71
2021/06/03 00:54:35;;;;;;;3.60;2.70;;;12.50;99.90;;;;;;5029460;28;20133;-71
2021/06/03 00:57:01;;;;;;;4.55;3.00;;;12.60;99.90;;;;;;5028705;28;20450;-72
2021/06/03 00:59:26;;;;;;;5.53;3.20;;;12.50;99.90;;;;;;5043751;28;20108;-72
2021/06/03 01:01:52;;;;;;;3.53;2.83;;;12.50;99.90;;;;;;5029233;28;20105;-72
2021/06/03 01:04:19;;;;;;;2.65;2.45;;;12.40;99.90;;;;;;5026897;28;20530;-72
2021/06/03 01:06:45;;;;;;;3.20;2.90;;;12.40;99.90;;;;;;5011016;28;20195;-72
2021/06/03 01:09:23;;;;;;;8.50;2.58;;;12.40;99.90;;;;;;5028135;28;20626;-72
2021/06/03 01:12:02;;;;;;;3.78;2.90;;;12.40;99.90;;;;;;5027732;28;20681;-72
2021/06/03 01:14:30;;;;;;;2.88;2.38;;;12.30;99.90;;;;;;5010890;28;20139;-72
2021/06/03 01:16:57;;;;;;;3.35;2.55;;;12.30;99.90;;;;;;5033843;28;20242;-72
2021/06/03 01:19:35;;;;;;;4.63;3.47;;;12.20;99.90;;;;;;5029097;28;20090;-71
2021/06/03 01:22:03;;;;;;;3.33;2.80;;;12.30;99.90;;;;;;5034617;28;20139;-72
2021/06/03 01:24:33;;;;;;;4.47;2.80;;;12.40;99.90;;;;;;5032070;28;20119;-71
2021/06/03 01:27:02;;;;;;;5.30;2.58;;;12.40;99.90;;;;;;5010761;28;20102;-72
2021/06/03 01:29:34;;;;;;;3.92;3.38;;;12.40;99.90;;;;;;5041509;28;20100;-71
2021/06/03 01:31:59;;;;;;;3.40;2.78;;;12.40;99.90;;;;;;5023172;28;20140;-72
2021/06/03 01:34:27;;;;;;;4.32;2.50;;;12.20;99.90;;;;;;5027804;28;20120;-71
2021/06/03 01:36:53;;;;;;;3.75;2.35;;;12.10;99.90;;;;;;5028346;28;20077;-72
2021/06/03 01:39:19;;;;;;;7.13;3.10;;;12.10;99.90;;;;;;5028584;28;20520;-71
2021/06/03 01:41:46;;;;;;;3.67;2.78;;;12.00;99.90;;;;;;5026922;28;20172;-71
2021/06/03 01:44:12;;;;;;;5.88;3.30;;;12.00;99.90;;;;;;5030539;28;20070;-72
2021/06/03 01:46:38;;;;;;;3.20;2.90;;;12.00;99.90;;;;;;5010152;28;20077;-72
2021/06/03 01:49:05;;;;;;;3.85;3.22;;;12.00;99.90;;;;;;5028580;28;20152;-72
2021/06/03 01:51:31;;;;;;;3.15;2.80;;;12.10;99.90;;;;;;5027645;28;20082;-72
2021/06/03 01:53:57;;;;;;;3.40;2.72;;;12.20;99.90;;;;;;5009923;28;20078;-72
2021/06/03 01:56:23;;;;;;;6.53;2.97;;;12.10;99.90;;;;;;5024160;28;20230;-72
2021/06/03 01:58:49;;;;;;;2.95;2.05;;;12.00;99.90;;;;;;5028937;28;20105;-72
2021/06/03 02:01:15;;;;;;;3.17;2.60;;;11.80;99.90;;;;;;5028644;28;20457;-72
2021/06/03 02:03:41;;;;;;;3.85;2.65;;;11.80;99.90;;;;;;5028625;28;20120;-72
2021/06/03 02:06:07;;;;;;;3.72;2.90;;;11.80;99.90;;;;;;5027393;28;20081;-72
2021/06/03 02:08:33;;;;;;;3.58;2.72;;;11.80;99.90;;;;;;5029164;28;20089;-72
2021/06/03 02:10:59;;;;;;;3.80;3.08;;;11.80;99.90;;;;;;5009719;28;20106;-72
2021/06/03 02:13:39;;;;;;;4.30;3.03;;;11.80;99.90;;;;;;5031961;28;20690;-72
2021/06/03 02:16:17;;;;;;;4.40;2.45;;;11.90;99.90;;;;;;5019999;28;20089;-72
2021/06/03 02:18:50;;;;;;;3.38;2.50;;;11.80;99.90;;;;;;5028685;28;20188;-73
2021/06/03 02:21:17;;;;;;;3.83;2.40;;;11.80;99.90;;;;;;5028002;28;20423;-72
2021/06/03 02:23:45;;;;;;;5.93;3.47;;;11.70;99.90;;;;;;5026813;28;20488;-72
2021/06/03 02:26:11;;;;;;;5.03;3.15;;;11.60;99.90;;;;;;5027547;28;20093;-72
2021/06/03 02:28:37;;;;;;;3.58;2.70;;;11.50;99.90;;;;;;5028075;28;20655;-72
2021/06/03 02:31:03;;;;;;;4.35;3.10;;;11.70;99.90;;;;;;5027723;28;20109;-72
2021/06/03 02:33:30;;;;;;;3.10;2.72;;;11.60;99.90;;;;;;5029510;28;20077;-72
2021/06/03 02:35:56;;;;;;;3.30;2.67;;;11.70;99.90;;;;;;5028877;28;20097;-73
2021/06/03 02:38:24;;;;;;;3.35;2.78;;;11.70;99.90;;;;;;5028408;28;20185;-72
2021/06/03 02:40:52;;;;;;;3.35;2.78;;;11.70;99.90;;;;;;5011186;28;20534;-72
2021/06/03 02:43:18;;;;;;;8.75;3.03;;;11.60;99.90;;;;;;5027802;28;20196;-73
2021/06/03 02:45:44;;;;;;;5.03;2.67;;;11.70;99.90;;;;;;5027159;28;20121;-73
2021/06/03 02:48:09;;;;;;;5.97;3.00;;;11.70;99.90;;;;;;5028317;28;20101;-73
2021/06/03 02:50:35;;;;;;;3.33;2.72;;;11.70;99.90;;;;;;5027984;28;20597;-72
2021/06/03 02:53:00;;;;;;;4.18;2.72;;;11.50;99.90;;;;;;5027488;28;20085;-72
2021/06/03 02:55:26;;;;;;;3.97;3.28;;;11.50;99.90;;;;;;5029085;28;20127;-72
2021/06/03 02:57:52;;;;;;;3.80;2.80;;;11.50;99.90;;;;;;5028757;28;20093;-72
2021/06/03 03:00:22;;;;;;;3.88;2.58;;;11.50;99.90;;;;;;5048835;28;20070;-72
2021/06/03 03:02:48;;;;;;;4.00;2.85;;;11.50;99.90;;;;;;5039748;28;20473;-72
2021/06/03 03:05:14;;;;;;;4.82;3.40;;;11.40;99.90;;;;;;5027834;28;20081;-72
2021/06/03 03:07:40;;;;;;;7.20;2.85;;;11.40;99.90;;;;;;5027049;28;20082;-72
2021/06/03 03:10:12;;;;;;;3.72;2.88;;;11.40;99.90;;;;;;5027779;28;20094;-72
2021/06/03 03:12:39;;;;;;;4.45;3.08;;;11.30;99.90;;;;;;5028287;28;20077;-72
2021/06/03 03:15:07;;;;;;;5.97;3.20;;;11.30;99.90;;;;;;5028448;28;20101;-72
2021/06/03 03:17:32;;;;;;;4.65;3.00;;;11.30;99.90;;;;;;5028899;28;20143;-72
2021/06/03 03:19:58;;;;;;;4.13;3.42;;;11.20;99.90;;;;;;5034912;28;20676;-72
2021/06/03 03:22:24;;;;;;;3.78;3.35;;;11.20;99.90;;;;;;5036556;28;20073;-71
2021/06/03 03:24:50;;;;;;;4.85;3.10;;;11.20;99.90;;;;;;5031995;28;20078;-71
2021/06/03 03:27:15;;;;;;;5.38;3.45;;;11.20;99.90;;;;;;5031469;28;20082;-71
2021/06/03 03:29:41;;;;;;;3.85;3.10;;;11.10;99.90;;;;;;5033132;28;20112;-71
2021/06/03 03:32:08;;;;;;;3.85;2.95;;;11.10;99.90;;;;;;5033460;28;20549;-71
2021/06/03 03:34:34;;;;;;;3.15;2.85;;;11.10;99.90;;;;;;5031812;28;20124;-71
2021/06/03 03:37:00;;;;;;;4.20;3.22;;;11.10;99.90;;;;;;5031264;28;20105;-71
2021/06/03 03:39:25;;;;;;;3.60;3.17;;;11.00;99.90;;;;;;5042885;28;20118;-71
2021/06/03 03:41:51;;;;;;;4.45;2.80;;;11.10;99.90;;;;;;5031695;28;20112;-71
2021/06/03 03:44:16;;;;;;;3.80;2.92;;;11.00;99.90;;;;;;5031080;28;20157;-71
2021/06/03 03:46:42;;;;;;;3.25;2.92;;;11.10;99.90;;;;;;5030973;28;20077;-71
2021/06/03 03:49:08;;;;;;;5.75;2.80;;;11.20;99.90;;;;;;5035805;28;20097;-71
2021/06/03 03:51:33;;;;;;;4.55;3.28;;;11.00;99.90;;;;;;5031962;28;20088;-71
2021/06/03 03:53:59;;;;;;;4.43;3.25;;;11.00;99.90;;;;;;5043092;28;20565;-71
2021/06/03 03:56:24;;;;;;;3.33;3.03;;;11.00;99.90;;;;;;5034268;28;20066;-71
2021/06/03 03:58:50;;;;;;;5.20;3.40;;;11.00;99.90;;;;;;5032404;28;20574;-71
2021/06/03 04:01:16;;;;;;;3.70;3.40;;;11.10;99.90;;;;;;5031667;28;20086;-71
2021/06/03 04:03:42;;;;;;;3.58;2.95;;;11.10;99.90;;;;;;5030846;28;20089;-72
2021/06/03 04:06:08;;;;;;;3.40;2.78;;;11.10;99.90;;;;;;5030883;28;20077;-71
2021/06/03 04:08:34;;;;;;;5.00;3.50;;;11.10;99.90;;;;;;5030744;28;20093;-71
2021/06/03 04:11:01;;;;;;;5.65;3.75;;;11.20;99.90;;;;;;5030724;28;20136;-72
2021/06/03 04:13:28;;;;;;;4.47;3.20;;;11.30;99.90;;;;;;5031588;28;20078;-71
2021/06/03 04:15:54;;;;;;;3.40;3.10;;;11.40;99.90;;;;;;5031133;28;20077;-72
2021/06/03 04:18:20;;;;;;;4.20;2.80;;;11.40;99.90;;;;;;5031931;28;20102;-72
2021/06/03 04:20:47;;;;;;;5.20;3.25;;;11.40;99.90;;;;;;5032656;28;20136;-71
2021/06/03 04:23:12;;;;;;;4.95;3.00;;;11.50;99.90;;;;;;5030625;28;20124;-72
2021/06/03 04:25:38;;;;;;;3.90;3.50;;;11.50;99.90;;;;;;5011757;28;20549;-72
2021/06/03 04:28:05;;;;;;;3.58;3.15;;;11.60;99.90;;;;;;5028388;28;20100;-71
2021/06/03 04:30:31;;;;;;;4.15;2.90;;;11.60;99.90;;;;;;5037922;28;20160;-71
2021/06/03 04:32:57;;;;;;;4.50;3.05;;;11.60;99.90;;;;;;5030210;28;20551;-71
2021/06/03 04:35:24;;;;;;;5.38;3.67;;;11.70;99.90;;;;;;5031521;28;20073;-72
2021/06/03 04:37:50;;;;;;;4.35;3.35;;;11.90;99.90;;;;;;5030215;28;20109;-72
2021/06/03 04:40:19;;;;;;;4.50;3.20;;;11.90;99.90;;;;;;5030365;28;20078;-71
2021/06/03 04:42:45;;;;;;;4.63;3.33;;;11.90;99.90;;;;;;5030529;28;20582;-71
2021/06/03 04:45:13;;;;;;;5.10;3.33;;;12.00;99.90;;;;;;5029268;28;20592;-71
2021/06/03 04:47:39;;;;;;;4.18;3.10;;;12.10;99.90;;;;;;5038876;28;20468;-71
2021/06/03 04:50:05;;;;;;;4.85;3.90;;;12.10;99.90;;;;;;5035130;28;20109;-71
2021/06/03 04:52:31;;;;;;;4.05;3.65;;;12.20;99.90;;;;;;5029883;28;20074;-71
2021/06/03 04:55:07;;;;;;;3.65;3.28;;;12.30;99.90;;;;;;5030297;28;20078;-71
2021/06/03 04:57:34;;;;;;;4.90;3.58;;;12.40;99.90;;;;;;5017105;28;20096;-71
2021/06/03 05:00:00;;;;;;;5.25;3.22;;;12.60;99.90;;;;;;5019570;28;20099;-72
2021/06/03 05:02:25;;;;;;;5.22;3.50;;;12.60;99.90;;;;;;5032536;28;20074;-72
2021/06/03 05:04:52;;;;;;;4.60;3.40;;;12.70;99.90;;;;;;5028891;28;20108;-71
2021/06/03 05:07:18;;;;;;;6.63;3.40;;;12.70;99.90;;;;;;5032583;28;20128;-71
2021/06/03 05:09:43;;;;;;;3.95;3.22;;;12.90;99.90;;;;;;5030830;28;20460;-72
2021/06/03 05:12:09;;;;;;;5.05;3.60;;;13.00;99.90;;;;;;5029655;28;20236;-71
2021/06/03 05:14:35;;;;;;;5.50;3.75;;;13.10;99.90;;;;;;5029345;28;20521;-71
2021/06/03 05:17:01;;;;;;;5.55;3.28;;;13.30;99.90;;;;;;5033607;28;20164;-72
2021/06/03 05:19:27;;;;;;;4.97;3.65;;;13.30;99.90;;;;;;5012606;28;20093;-72
2021/06/03 05:21:53;;;;;;;5.35;3.53;;;13.50;99.90;;;;;;5029694;28;20111;-72
2021/06/03 05:24:18;;;;;;;4.40;3.40;;;13.60;99.90;;;;;;5011329;28;20078;-72
2021/06/03 05:26:45;;;;;;;4.38;3.15;;;13.70;99.90;;;;;;5029050;28;20114;-71
2021/06/03 05:29:15;;;;;;;3.75;3.03;;;13.90;99.90;;;;;;5029129;28;20156;-72
2021/06/03 05:31:44;;;;;;;3.80;2.90;;;14.00;99.90;;;;;;5043384;28;20093;-72
2021/06/03 05:34:10;;;;;;;4.32;3.10;;;14.10;99.90;;;;;;5041438;28;20164;-71
2021/06/03 05:36:36;;;;;;;3.28;2.83;;;14.30;99.90;;;;;;5010203;28;20082;-71
2021/06/03 05:39:02;;;;;;;3.85;3.00;;;14.50;99.90;;;;;;5028653;28;20105;-71
2021/06/03 05:41:28;;;;;;;4.63;2.90;;;14.60;99.90;;;;;;5030137;28;20172;-71
2021/06/03 05:43:53;;;;;;;4.15;3.38;;;14.80;99.90;;;;;;5029587;28;20157;-72
2021/06/03 05:46:19;;;;;;;3.58;3.25;;;15.00;99.90;;;;;;5027995;28;20073;-71
2021/06/03 05:48:44;;;;;;;7.03;2.85;;;15.20;99.90;;;;;;5039600;28;20101;-71
2021/06/03 05:51:10;;;;;;;2.78;2.53;;;15.30;99.90;;;;;;5031573;28;20621;-72
2021/06/03 05:53:36;;;;;;;4.47;2.95;;;15.30;99.90;;;;;;5030171;28;20077;-71
2021/06/03 05:56:02;;;;;;;4.35;3.33;;;15.50;99.90;;;;;;5027919;28;20132;-72
2021/06/03 05:58:27;;;;;;;4.85;2.95;;;15.50;99.90;;;;;;5034124;28;20499;-71
2021/06/03 06:00:53;;;;;;;5.60;2.90;;;15.70;99.90;;;;;;5035087;28;20074;-72
2021/06/03 06:03:22;;;;;;;5.00;2.95;;;15.90;99.90;;;;;;5029483;28;20139;-71
2021/06/03 06:08:31;;;;;;;4.03;3.38;;;16.10;99.90;;;;;;5037899;28;20212;-71
2021/06/03 06:10:57;;;;;;;3.88;3.25;;;16.20;99.90;;;;;;5049097;28;20593;-73
2021/06/03 06:13:22;;;;;;;3.97;3.30;;;16.50;99.90;;;;;;5028813;28;20077;-71
2021/06/03 06:15:48;;;;;;;4.05;3.55;;;16.70;99.90;;;;;;5029803;28;20093;-71
2021/06/03 06:18:14;;;;;;;7.03;3.25;;;16.80;99.90;;;;;;5027870;28;20104;-72
2021/06/03 06:20:39;;;;;;;7.45;3.30;;;17.00;99.90;;;;;;5027646;28;20082;-72
2021/06/03 06:23:06;;;;;;;4.38;3.50;;;17.10;99.90;;;;;;5032043;28;20085;-72
2021/06/03 06:25:31;;;;;;;5.32;3.17;;;17.20;99.90;;;;;;5030429;28;20176;-72
2021/06/03 06:27:58;;;;;;;3.85;2.60;;;17.30;99.90;;;;;;5027706;28;20102;-72
2021/06/03 06:30:24;;;;;;;4.72;2.90;;;17.40;99.90;;;;;;5033793;28;20113;-71
2021/06/03 06:32:49;;;;;;;3.25;2.95;;;17.50;99.90;;;;;;5028709;28;20082;-71
2021/06/03 06:35:17;;;;;;;4.50;3.22;;;17.60;99.90;;;;;;5027904;28;20104;-71
2021/06/03 06:37:43;;;;;;;2.90;2.67;;;17.70;99.90;;;;;;5027344;28;20124;-71
2021/06/03 06:40:09;;;;;;;5.57;3.10;;;17.80;99.90;;;;;;5028047;28;20098;-72
2021/06/03 06:42:35;;;;;;;7.18;2.85;;;17.90;99.90;;;;;;5028280;28;20124;-71
2021/06/03 06:45:03;;;;;;;4.30;3.03;;;18.00;99.90;;;;;;5028631;28;20070;-72
2021/06/03 06:47:28;;;;;;;3.50;2.90;;;18.20;99.90;;;;;;5013467;28;20092;-72
2021/06/03 06:49:54;;;;;;;3.55;2.90;;;18.30;99.90;;;;;;5032527;28;20102;-72
2021/06/03 06:52:20;;;;;;;3.03;2.40;;;18.20;99.90;;;;;;5027187;28;20139;-72
2021/06/03 06:54:47;;;;;;;4.50;3.20;;;18.40;99.90;;;;;;5027473;28;20545;-71
2021/06/03 06:57:12;;;;;;;3.70;2.70;;;18.30;99.90;;;;;;5036598;28;20136;-71
2021/06/03 06:59:38;;;;;;;3.80;2.88;;;18.50;99.90;;;;;;5031472;28;20464;-71
2021/06/03 07:02:03;;;;;;;8.13;4.03;;;18.60;99.90;;;;;;5027246;28;20156;-71
2021/06/03 07:04:29;;;;;;;3.20;2.88;;;18.80;99.90;;;;;;5028187;28;20161;-72
2021/06/03 07:06:55;;;;;;;3.40;3.10;;;18.80;99.90;;;;;;5008406;28;20093;-72
2021/06/03 07:09:20;;;;;;;5.43;3.38;;;18.80;99.90;;;;;;5027284;28;20093;-72
2021/06/03 07:11:46;;;;;;;3.15;2.85;;;18.80;99.90;;;;;;5027430;28;20461;-71
2021/06/03 07:14:12;;;;;;;4.30;3.28;;;18.80;99.90;;;;;;5010176;28;20119;-72
2021/06/03 07:16:37;;;;;;;5.07;3.25;;;18.90;99.90;;;;;;5026964;28;20721;-72
2021/06/03 07:19:03;;;;;;;4.45;3.17;;;18.90;99.90;;;;;;5028676;28;20570;-71
2021/06/03 07:21:30;;;;;;;4.53;2.90;;;18.90;99.90;;;;;;5027369;28;20166;-72
2021/06/03 07:23:55;;;;;;;6.47;3.60;;;19.10;99.90;;;;;;5026823;28;20112;-72
2021/06/03 07:26:23;;;;;;;4.88;3.88;;;19.20;99.90;;;;;;5029046;28;20077;-72
2021/06/03 07:28:49;;;;;;;4.57;2.72;;;19.30;99.90;;;;;;5037159;28;20504;-72
2021/06/03 07:31:15;;;;;;;3.75;2.85;;;19.20;99.90;;;;;;5024815;28;20090;-72
2021/06/03 07:33:41;;;;;;;3.55;3.22;;;19.40;99.90;;;;;;5027999;28;20136;-72
2021/06/03 07:36:08;;;;;;;3.35;3.05;;;19.60;99.90;;;;;;5027753;28;20534;-72
2021/06/03 07:38:34;;;;;;;4.05;3.22;;;19.50;99.90;;;;;;5027931;28;20255;-72
2021/06/03 07:41:00;;;;;;;4.47;2.85;;;19.40;99.90;;;;;;5028508;28;20501;-72
2021/06/03 07:43:26;;;;;;;3.20;2.90;;;19.40;99.90;;;;;;5030495;28;20074;-72
2021/06/03 07:45:51;;;;;;;4.82;3.45;;;19.70;99.90;;;;;;5037508;28;20199;-72
2021/06/03 07:48:17;;;;;;;3.55;3.20;;;19.80;99.90;;;;;;5015454;28;20094;-71
2021/06/03 07:50:43;;;;;;;4.55;3.28;;;19.70;99.90;;;;;;5027045;28;20082;-72
2021/06/03 07:53:10;;;;;;;4.47;3.67;;;19.80;99.90;;;;;;5027213;28;20090;-72
2021/06/03 07:55:36;;;;;;;5.32;3.80;;;19.80;99.90;;;;;;5030410;28;20085;-72
2021/06/03 07:58:08;;;;;;;4.60;3.55;;;20.00;99.90;;;;;;5040498;28;20093;-72
2021/06/03 08:00:35;;;;;;;4.80;3.60;;;20.10;99.90;;;;;;5031065;28;20074;-71
2021/06/03 08:03:02;;;;;;;4.35;3.67;;;20.20;99.90;;;;;;5029037;28;20109;-72
2021/06/03 08:05:28;;;;;;;4.68;3.97;;;20.20;99.90;;;;;;5030379;28;20081;-72
2021/06/03 08:07:54;;;;;;;4.10;3.22;;;20.20;99.90;;;;;;5032980;28;20082;-71
2021/06/03 08:10:24;;;;;;;4.82;3.10;;;20.30;99.90;;;;;;5032588;28;20085;-72
2021/06/03 08:12:51;;;;;;;5.10;3.42;;;20.20;99.90;;;;;;5031274;28;20077;-72
2021/06/03 08:15:17;;;;;;;3.42;3.13;;;20.40;99.90;;;;;;5030271;28;20066;-72
2021/06/03 08:17:43;;;;;;;4.80;3.22;;;20.40;99.90;;;;;;5029715;28;20232;-73
2021/06/03 08:20:12;;;;;;;4.60;4.00;;;20.50;99.90;;;;;;5031779;28;20168;-72
2021/06/03 08:22:38;;;;;;;5.05;4.03;;;20.40;99.90;;;;;;5033594;28;20105;-72
2021/06/03 08:25:04;;;;;;;5.80;4.57;;;20.30;99.90;;;;;;5041105;28;20105;-71
2021/06/03 08:27:30;;;;;;;4.20;3.25;;;20.20;99.90;;;;;;5030417;28;20073;-72
2021/06/03 08:29:56;;;;;;;5.30;3.97;;;20.30;99.90;;;;;;5013731;28;20100;-72
2021/06/03 08:32:21;;;;;;;5.75;4.03;;;20.40;99.90;;;;;;5031273;28;20085;-72
2021/06/03 08:34:47;;;;;;;7.97;4.20;;;20.40;99.90;;;;;;5038189;28;20135;-72
2021/06/03 08:37:13;;;;;;;7.97;4.22;;;20.40;99.90;;;;;;5039535;28;20080;-72
2021/06/03 08:39:38;;;;;;;6.15;4.32;;;20.50;99.90;;;;;;5034656;28;20137;-72
2021/06/03 08:42:05;;;;;;;7.35;4.18;;;20.50;99.90;;;;;;5033832;28;20581;-74
2021/06/03 08:44:31;;;;;;;4.97;4.18;;;20.70;99.90;;;;;;5032501;28;20077;-78
2021/06/03 08:46:57;;;;;;;5.57;3.72;;;20.60;99.90;;;;;;5039935;28;20550;-78
2021/06/03 08:49:24;;;;;;;4.25;3.85;;;20.60;99.90;;;;;;5044197;28;20553;-77
2021/06/03 08:51:52;;;;;;;4.70;4.25;;;20.50;99.90;;;;;;5035760;28;20086;-74
2021/06/03 08:54:18;;;;;;;5.55;3.80;;;20.50;99.90;;;;;;5038958;28;20207;-74
2021/06/03 08:56:44;;;;;;;6.38;4.00;;;20.50;99.90;;;;;;5050031;28;20224;-73
2021/06/03 08:59:09;;;;;;;7.80;4.18;;;21.00;99.90;;;;;;5049501;28;20105;-73
2021/06/03 09:01:35;;;;;;;7.00;4.32;;;21.00;99.90;;;;;;5049130;28;20127;-73
2021/06/03 09:04:01;;;;;;;4.75;3.47;;;21.10;99.90;;;;;;5027608;28;20078;-73
2021/06/03 09:06:27;;;;;;;3.65;3.17;;;21.30;99.90;;;;;;5028882;28;20092;-73
2021/06/03 09:09:01;;;;;;;5.80;3.03;;;21.30;99.90;;;;;;5029516;28;20139;-72
2021/06/03 09:11:31;;;;;;;4.53;4.03;;;21.20;99.90;;;;;;5030867;28;20132;-72
2021/06/03 09:14:03;;;;;;;4.15;3.38;;;21.10;99.90;;;;;;5029940;28;20143;-72
2021/06/03 09:16:34;;;;;;;4.22;3.03;;;21.20;99.90;;;;;;5013850;28;20818;-72
2021/06/03 09:19:05;;;;;;;3.28;2.90;;;21.50;99.90;;;;;;5034604;28;20215;-73
2021/06/03 09:21:35;;;;;;;3.10;2.78;;;21.80;99.90;;;;;;5040908;28;20074;-73
2021/06/03 09:24:03;;;;;;;3.17;2.88;;;21.70;99.90;;;;;;5011342;28;20074;-74
2021/06/03 09:26:47;;;;;;;5.38;2.90;;;21.60;99.90;;;;;;5031277;28;20105;-73
2021/06/03 09:29:18;;;;;;;3.55;2.70;;;21.70;99.90;;;;;;5040411;28;20139;-73
2021/06/03 09:31:44;;;;;;;5.45;2.92;;;21.90;99.90;;;;;;5037871;28;20109;-71
2021/06/03 09:34:15;;;;;;;3.22;2.60;;;22.00;99.90;;;;;;5041159;28;20120;-75
2021/06/03 09:36:47;;;;;;;4.97;3.00;;;22.20;99.90;;;;;;5044219;28;20070;-75
2021/06/03 09:39:28;;;;;;;5.18;2.83;;;22.20;99.90;;;;;;5045523;28;20561;-77
2021/06/03 09:42:09;;;;;;;4.32;3.67;;;22.30;99.90;;;;;;5041331;28;20070;-77
2021/06/03 09:44:40;;;;;;;4.63;4.05;;;22.20;99.90;;;;;;5042750;28;20073;-76
2021/06/03 09:47:14;;;;;;;4.32;3.63;;;21.90;99.90;;;;;;5039073;28;20074;-77
2021/06/03 09:49:41;;;;;;;;;;;21.90;99.90;;;;;;5018107;28;20120;-77
2021/06/03 09:52:18;;;;;;;3.60;3.30;;;21.90;99.90;;;;;;5029243;28;19957;-73
2021/06/03 09:54:56;;;;;;;6.97;4.85;;;22.20;99.90;;;;;;5039212;28;20066;-78
2021/06/03 09:57:29;;;;;;;7.70;4.18;;;22.10;99.90;;;;;;5027150;28;20078;-74
2021/06/03 10:00:10;;;;;;;5.72;4.72;;;21.90;99.90;;;;;;5029484;28;20086;-72
2021/06/03 10:02:38;;;;;;;4.68;4.20;;;21.90;99.90;;;;;;5028919;28;20533;-73
2021/06/03 10:05:11;;;;;;;4.88;4.07;;;22.30;99.90;;;;;;5045620;28;20147;-73
2021/06/03 10:07:36;;;;;;;4.18;3.80;;;22.40;99.90;;;;;;5036703;28;20534;-73
2021/06/03 10:10:09;;;;;;;4.38;3.72;;;22.50;99.90;;;;;;5028826;28;20180;-72
2021/06/03 10:12:47;;;;;;;4.25;3.67;;;22.60;99.90;;;;;;5034171;28;20074;-73
2021/06/03 10:15:35;;;;;;;3.75;3.33;;;22.70;99.90;;;;;;5031413;28;20077;-74
2021/06/03 10:18:08;;;;;;;6.22;3.80;;;22.60;99.90;;;;;;5035421;28;20093;-75
2021/06/03 10:21:05;;;;;;;4.60;4.13;;;22.40;99.90;;;;;;5036935;28;20073;-75
2021/06/03 10:23:31;;;;;;;3.67;3.30;;;22.50;99.90;;;;;;5036672;28;20082;-73
2021/06/03 10:26:05;;;;;;;4.13;3.22;;;22.70;99.90;;;;;;5027754;28;20845;-73
2021/06/03 10:28:31;;;;;;;4.50;3.33;;;22.60;99.90;;;;;;5035441;28;20138;-72
2021/06/03 10:31:01;;;;;;;5.00;3.47;;;22.50;99.80;;;;;;5030261;28;20094;-72
2021/06/03 10:33:30;;;;;;;4.95;3.60;;;22.80;99.90;;;;;;5029581;28;20135;-76
2021/06/03 10:36:03;;;;;;;5.18;3.72;;;22.60;99.60;;;;;;5009775;28;20165;-72
2021/06/03 10:38:29;;;;;;;4.88;3.78;;;22.80;99.90;;;;;;5028648;28;20102;-71
2021/06/03 10:40:57;;;;;;;4.63;2.95;;;23.10;99.90;;;;;;5028111;28;20145;-72
2021/06/03 10:43:23;;;;;;;4.78;3.42;;;23.00;99.60;;;;;;5029064;28;20081;-71
2021/06/03 10:45:49;;;;;;;5.22;4.13;;;22.80;99.20;;;;;;5009267;28;20077;-72
2021/06/03 10:48:15;;;;;;;3.25;2.92;;;22.80;98.70;;;;;;5027950;28;20093;-73
2021/06/03 10:50:49;;;;;;;4.15;3.45;;;22.80;99.20;;;;;;5028606;28;20066;-73
2021/06/03 10:53:19;;;;;;;3.45;3.15;;;23.00;99.50;;;;;;5028160;28;20074;-72
2021/06/03 10:55:48;;;;;;;3.30;3.00;;;23.00;98.60;;;;;;5040718;28;20553;-72
2021/06/03 10:58:16;;;;;;;3.50;3.20;;;23.00;98.60;;;;;;5047861;28;20113;-72
2021/06/03 11:00:47;;;;;;;3.92;3.20;;;22.90;97.70;;;;;;5039796;28;20081;-73
2021/06/03 11:03:15;;;;;;;3.95;3.40;;;23.10;98.00;;;;;;5043448;28;20156;-73
2021/06/03 11:05:42;;;;;;;3.90;3.00;;;23.20;97.50;;;;;;5044474;28;20093;-72
2021/06/03 11:08:32;;;;;;;5.57;3.10;;;23.10;96.60;;;;;;5023718;28;20085;-73
2021/06/03 11:11:13;;;;;;;3.47;2.35;;;23.00;95.60;;;;;;5040161;28;20077;-73
2021/06/03 11:14:11;;;;;;;2.63;2.38;;;22.90;97.00;;;;;;5027862;28;20079;-73
2021/06/03 11:16:40;;;;;;;5.05;2.80;;;22.90;98.30;;;;;;5036085;28;20115;-72
2021/06/03 11:19:09;;;;;;;4.45;2.97;;;22.80;96.40;;;;;;5025112;28;20193;-73
2021/06/03 11:21:35;;;;;;;5.68;2.67;;;22.80;97.30;;;;;;5021378;28;20151;-73
2021/06/03 11:24:35;;;;;;;2.88;2.50;;;22.90;98.60;;;;;;5038245;28;20069;-73
2021/06/03 11:27:15;;;;;;;3.35;2.20;;;23.10;97.50;;;;;;5040357;28;20073;-73
2021/06/03 11:29:46;;;;;;;3.10;2.72;;;23.20;94.40;;;;;;5043390;28;20147;-72
2021/06/03 11:32:18;;;;;;;2.80;2.60;;;23.30;97.30;;;;;;5040288;28;20116;-73
2021/06/03 11:34:46;;;;;;;4.90;2.63;;;23.50;96.90;;;;;;5024209;28;20546;-73
2021/06/03 11:37:20;;;;;;;3.78;2.25;;;23.70;99.90;;;;;;5027306;28;20518;-74
2021/06/03 11:39:59;;;;;;;2.50;2.10;;;23.80;95.00;;;;;;5025391;28;20125;-72
2021/06/03 11:42:42;;;;;;;3.30;2.15;;;23.50;93.10;;;;;;5014432;28;20073;-73
2021/06/03 11:45:36;;;;;;;4.22;2.72;;;23.60;93.90;;;;;;5033616;28;20085;-73
2021/06/03 11:48:12;;;;;;;2.80;2.40;;;23.40;92.50;;;;;;5033829;28;20160;-72
2021/06/03 11:50:46;;;;;;;4.10;2.50;;;23.30;92.30;;;;;;5031867;28;20078;-72
2021/06/03 11:53:20;;;;;;;2.67;2.20;;;23.50;92.80;;;;;;5038344;28;20152;-72
2021/06/03 11:55:53;;;;;;;;;;;23.50;91.80;;;;;;5032878;28;20588;-75
2021/06/03 11:58:30;;;;;;;4.80;2.67;;;23.70;91.20;;;;;;5045280;28;19986;-72
2021/06/03 12:01:03;;;;;;;3.15;2.00;;;23.50;91.80;;;;;;5031028;28;20082;-73
2021/06/03 12:03:37;;;;;;;4.70;2.13;;;23.60;90.40;;;;;;5034549;28;20074;-73
2021/06/03 12:06:13;;;;;;;3.23;2.10;;;23.70;90.60;;;;;;5030619;28;20116;-73
2021/06/03 12:08:50;;;;;;;3.60;2.10;;;23.60;89.30;;;;;;5012871;28;20105;-73
2021/06/03 12:11:20;;;;;;;3.97;1.90;;;23.70;89.90;;;;;;5030251;28;20073;-73
2021/06/03 12:14:01;;;;;;;3.03;2.10;;;23.80;89.10;;;;;;5030511;28;20102;-73
2021/06/03 12:16:46;;;;;;;2.90;1.95;;;23.80;90.30;;;;;;5034002;28;20081;-73
2021/06/03 12:19:13;;;;;;;;;;;23.90;90.30;;;;;;5043294;28;20511;-73
2021/06/03 12:21:41;;;;;;;2.55;1.60;;;23.80;85.90;;;;;;5031006;28;19981;-74
2021/06/03 12:24:07;;;;;;;2.28;1.90;;;23.80;85.50;;;;;;5030362;28;20070;-72
2021/06/03 12:26:36;;;;;;;3.03;1.63;;;23.90;85.50;;;;;;5030161;28;20066;-73
2021/06/03 12:29:02;;;;;;;5.30;1.90;;;24.00;84.80;;;;;;5020106;28;20090;-72
2021/06/03 12:31:28;;;;;;;1.92;1.70;;;24.00;84.20;;;;;;5029893;28;20916;-73
2021/06/03 12:33:56;;;;;;;3.35;1.88;;;24.00;83.50;;;;;;5029640;28;20074;-73
2021/06/03 12:36:25;;;;;;;5.50;4.80;;;24.00;81.60;;;;;;5029288;28;20089;-73
2021/06/03 12:38:52;;;;;;;2.50;2.20;;;24.00;83.30;;;;;;5033720;28;20156;-73
2021/06/03 12:41:34;;;;;;;2.90;2.38;;;23.90;78.30;;;;;;5032849;28;20093;-72
2021/06/03 12:44:03;;;;;;;3.30;1.70;;;23.90;79.50;;;;;;5028635;28;20538;-72
2021/06/03 12:46:51;;;;;;;3.47;1.90;;;23.80;76.80;;;;;;5030698;28;20616;-73
2021/06/03 12:49:20;;;;;;;1.85;1.52;;;23.90;76.60;;;;;;5039969;28;20155;-73
2021/06/03 12:51:53;;;;;;;3.95;1.67;;;23.80;76.50;;;;;;5032177;28;20096;-73
2021/06/03 12:54:41;;;;;;;2.47;1.65;;;23.80;78.60;;;;;;5029919;28;20086;-74
2021/06/03 12:57:25;;;;;;;2.15;1.67;;;23.90;76.00;;;;;;5030039;28;20110;-73